sensor_id;sensor_type;location;lat;lon;timestamp;temperature;humidity
666;DHT22;315;48.738;9.126;2023-02-13T00:01:21;3.30;99.90
666;DHT22;315;48.738;9.126;2023-02-13T00:03:46;3.30;99.90
666;DHT22;315;48.738;9.126;2023-02-13T00:06:12;3.30;99.90
666;DHT22;315;48.738;9.126;2023-02-13T00:08:37;3.20;99.90
666;DHT22;315;48.738;9.126;2023-02-13T00:11:03;3.20;99.90
666;DHT22;315;48.738;9.126;2023-02-13T00:13:28;3.30;99.90
666;DHT22;315;48.738;9.126;2023-02-13T00:15:58;3.20;99.90
666;DHT22;315;48.738;9.126;2023-02-13T00:18:24;3.20;99.90
666;DHT22;315;48.738;9.126;2023-02-13T00:21:00;3.10;99.90
666;DHT22;315;48.738;9.126;2023-02-13T00:23:28;3.10;99.90
666;DHT22;315;48.738;9.126;2023-02-13T00:25:54;3.00;99.90
666;DHT22;315;48.738;9.126;2023-02-13T00:28:20;3.00;99.90
666;DHT22;315;48.738;9.126;2023-02-13T00:30:45;2.90;99.90
666;DHT22;315;48.738;9.126;2023-02-13T00:33:11;2.80;99.90
666;DHT22;315;48.738;9.126;2023-02-13T00:35:36;2.80;99.90
666;DHT22;315;48.738;9.126;2023-02-13T00:38:01;2.80;99.90
666;DHT22;315;48.738;9.126;2023-02-13T00:40:27;2.80;99.90
666;DHT22;315;48.738;9.126;2023-02-13T00:42:52;2.80;99.90
666;DHT22;315;48.738;9.126;2023-02-13T00:45:18;2.80;99.90
666;DHT22;315;48.738;9.126;2023-02-13T00:47:43;2.70;99.90
666;DHT22;315;48.738;9.126;2023-02-13T00:50:09;2.70;99.90
666;DHT22;315;48.738;9.126;2023-02-13T00:52:35;2.70;99.90
666;DHT22;315;48.738;9.126;2023-02-13T00:55:00;2.80;99.90
666;DHT22;315;48.738;9.126;2023-02-13T00:57:26;2.70;99.90
666;DHT22;315;48.738;9.126;2023-02-13T00:59:51;2.70;99.90
666;DHT22;315;48.738;9.126;2023-02-13T01:02:17;2.70;99.90
666;DHT22;315;48.738;9.126;2023-02-13T01:04:42;2.70;99.90
666;DHT22;315;48.738;9.126;2023-02-13T01:07:08;2.70;99.90
666;DHT22;315;48.738;9.126;2023-02-13T01:09:34;2.60;99.90
666;DHT22;315;48.738;9.126;2023-02-13T01:11:59;2.60;99.90
666;DHT22;315;48.738;9.126;2023-02-13T01:14:25;2.60;99.90
666;DHT22;315;48.738;9.126;2023-02-13T01:16:50;2.60;99.90
666;DHT22;315;48.738;9.126;2023-02-13T01:19:16;2.60;99.90
666;DHT22;315;48.738;9.126;2023-02-13T01:21:42;2.50;99.90
666;DHT22;315;48.738;9.126;2023-02-13T01:24:08;2.50;99.90
666;DHT22;315;48.738;9.126;2023-02-13T01:26:33;2.50;99.90
666;DHT22;315;48.738;9.126;2023-02-13T01:28:59;2.40;99.90
666;DHT22;315;48.738;9.126;2023-02-13T01:31:25;2.50;99.90
666;DHT22;315;48.738;9.126;2023-02-13T01:33:51;2.40;99.90
666;DHT22;315;48.738;9.126;2023-02-13T01:36:17;2.50;99.90
666;DHT22;315;48.738;9.126;2023-02-13T01:38:42;2.50;99.90
666;DHT22;315;48.738;9.126;2023-02-13T01:41:08;2.40;99.90
666;DHT22;315;48.738;9.126;2023-02-13T01:46:30;2.40;99.90
666;DHT22;315;48.738;9.126;2023-02-13T01:49:09;2.30;99.90
666;DHT22;315;48.738;9.126;2023-02-13T01:51:36;2.40;99.90
666;DHT22;315;48.738;9.126;2023-02-13T01:54:05;2.40;99.90
666;DHT22;315;48.738;9.126;2023-02-13T01:56:37;2.40;99.90
666;DHT22;315;48.738;9.126;2023-02-13T01:59:08;2.30;99.90
666;DHT22;315;48.738;9.126;2023-02-13T02:01:35;2.30;99.90
666;DHT22;315;48.738;9.126;2023-02-13T02:04:18;2.30;99.90
666;DHT22;315;48.738;9.126;2023-02-13T02:06:50;2.30;99.90
666;DHT22;315;48.738;9.126;2023-02-13T02:09:19;2.30;99.90
666;DHT22;315;48.738;9.126;2023-02-13T02:14:30;2.20;99.90
666;DHT22;315;48.738;9.126;2023-02-13T02:16:56;2.10;99.90
666;DHT22;315;48.738;9.126;2023-02-13T02:19:36;2.10;99.90
666;DHT22;315;48.738;9.126;2023-02-13T02:22:43;2.00;99.90
666;DHT22;315;48.738;9.126;2023-02-13T02:31:37;2.10;99.90
666;DHT22;315;48.738;9.126;2023-02-13T02:37:20;2.00;99.90
666;DHT22;315;48.738;9.126;2023-02-13T02:42:35;2.00;99.90
666;DHT22;315;48.738;9.126;2023-02-13T02:45:35;2.00;99.90
666;DHT22;315;48.738;9.126;2023-02-13T02:48:10;2.00;99.90
666;DHT22;315;48.738;9.126;2023-02-13T02:51:10;2.00;99.90
666;DHT22;315;48.738;9.126;2023-02-13T02:53:45;2.00;99.90
666;DHT22;315;48.738;9.126;2023-02-13T02:56:36;2.00;99.90
666;DHT22;315;48.738;9.126;2023-02-13T02:59:14;2.00;99.90
666;DHT22;315;48.738;9.126;2023-02-13T03:02:00;2.00;99.90
666;DHT22;315;48.738;9.126;2023-02-13T03:04:48;2.10;99.90
666;DHT22;315;48.738;9.126;2023-02-13T03:07:34;2.00;99.90
666;DHT22;315;48.738;9.126;2023-02-13T03:10:03;2.00;99.90
666;DHT22;315;48.738;9.126;2023-02-13T03:13:05;2.00;99.90
666;DHT22;315;48.738;9.126;2023-02-13T03:15:47;1.90;99.90
666;DHT22;315;48.738;9.126;2023-02-13T03:18:35;1.90;99.90
666;DHT22;315;48.738;9.126;2023-02-13T03:22:03;1.90;99.90
666;DHT22;315;48.738;9.126;2023-02-13T03:24:58;1.90;99.90
666;DHT22;315;48.738;9.126;2023-02-13T03:31:23;1.90;99.90
666;DHT22;315;48.738;9.126;2023-02-13T03:34:05;1.80;99.90
666;DHT22;315;48.738;9.126;2023-02-13T03:36:42;1.80;99.90
666;DHT22;315;48.738;9.126;2023-02-13T03:39:48;1.80;99.90
666;DHT22;315;48.738;9.126;2023-02-13T03:45:02;1.60;99.90
666;DHT22;315;48.738;9.126;2023-02-13T03:47:50;1.60;99.90
666;DHT22;315;48.738;9.126;2023-02-13T03:50:17;1.70;99.90
666;DHT22;315;48.738;9.126;2023-02-13T03:53:02;1.70;99.90
666;DHT22;315;48.738;9.126;2023-02-13T03:55:33;1.70;99.90
666;DHT22;315;48.738;9.126;2023-02-13T03:58:27;1.70;99.90
666;DHT22;315;48.738;9.126;2023-02-13T04:01:14;1.70;99.90
666;DHT22;315;48.738;9.126;2023-02-13T04:03:56;1.70;99.90
666;DHT22;315;48.738;9.126;2023-02-13T04:06:36;1.60;99.90
666;DHT22;315;48.738;9.126;2023-02-13T04:09:03;1.50;99.90
666;DHT22;315;48.738;9.126;2023-02-13T04:11:41;1.40;99.90
666;DHT22;315;48.738;9.126;2023-02-13T04:14:29;1.50;99.90
666;DHT22;315;48.738;9.126;2023-02-13T04:17:01;1.60;99.90
666;DHT22;315;48.738;9.126;2023-02-13T04:19:27;1.60;99.90
666;DHT22;315;48.738;9.126;2023-02-13T04:21:56;1.60;99.90
666;DHT22;315;48.738;9.126;2023-02-13T04:24:22;1.50;99.90
666;DHT22;315;48.738;9.126;2023-02-13T04:26:48;1.50;99.90
666;DHT22;315;48.738;9.126;2023-02-13T04:29:13;1.40;99.90
666;DHT22;315;48.738;9.126;2023-02-13T04:31:39;1.30;99.90
666;DHT22;315;48.738;9.126;2023-02-13T04:34:04;1.30;99.90
666;DHT22;315;48.738;9.126;2023-02-13T04:36:30;1.40;99.90
666;DHT22;315;48.738;9.126;2023-02-13T04:38:55;1.40;99.90
666;DHT22;315;48.738;9.126;2023-02-13T04:41:21;1.30;99.90
666;DHT22;315;48.738;9.126;2023-02-13T04:43:46;1.40;99.90
666;DHT22;315;48.738;9.126;2023-02-13T04:46:13;1.40;99.90
666;DHT22;315;48.738;9.126;2023-02-13T04:48:38;1.50;99.90
666;DHT22;315;48.738;9.126;2023-02-13T04:51:04;1.50;99.90
666;DHT22;315;48.738;9.126;2023-02-13T04:53:29;1.50;99.90
666;DHT22;315;48.738;9.126;2023-02-13T04:55:55;1.50;99.90
666;DHT22;315;48.738;9.126;2023-02-13T04:58:20;1.50;99.90
666;DHT22;315;48.738;9.126;2023-02-13T05:00:46;1.50;99.90
666;DHT22;315;48.738;9.126;2023-02-13T05:03:12;1.40;99.90
666;DHT22;315;48.738;9.126;2023-02-13T05:05:38;1.40;99.90
666;DHT22;315;48.738;9.126;2023-02-13T05:08:06;1.30;99.90
666;DHT22;315;48.738;9.126;2023-02-13T05:10:32;1.20;99.90
666;DHT22;315;48.738;9.126;2023-02-13T05:12:58;1.20;99.90
666;DHT22;315;48.738;9.126;2023-02-13T05:15:23;1.20;99.90
666;DHT22;315;48.738;9.126;2023-02-13T05:17:50;1.20;99.90
666;DHT22;315;48.738;9.126;2023-02-13T05:20:16;1.20;99.90
666;DHT22;315;48.738;9.126;2023-02-13T05:22:49;1.20;99.90
666;DHT22;315;48.738;9.126;2023-02-13T05:25:35;1.20;99.90
666;DHT22;315;48.738;9.126;2023-02-13T05:28:01;1.20;99.90
666;DHT22;315;48.738;9.126;2023-02-13T05:30:27;1.20;99.90
666;DHT22;315;48.738;9.126;2023-02-13T05:32:52;1.30;99.90
666;DHT22;315;48.738;9.126;2023-02-13T05:35:20;1.40;99.90
666;DHT22;315;48.738;9.126;2023-02-13T05:37:45;1.30;99.90
666;DHT22;315;48.738;9.126;2023-02-13T05:40:11;1.30;99.90
666;DHT22;315;48.738;9.126;2023-02-13T05:42:38;1.30;99.90
666;DHT22;315;48.738;9.126;2023-02-13T05:45:04;1.30;99.90
666;DHT22;315;48.738;9.126;2023-02-13T05:47:29;1.20;99.90
666;DHT22;315;48.738;9.126;2023-02-13T05:49:55;1.10;99.90
666;DHT22;315;48.738;9.126;2023-02-13T05:52:20;1.10;99.90
666;DHT22;315;48.738;9.126;2023-02-13T05:54:46;1.00;99.90
666;DHT22;315;48.738;9.126;2023-02-13T05:57:11;1.00;99.90
666;DHT22;315;48.738;9.126;2023-02-13T05:59:37;1.00;99.90
666;DHT22;315;48.738;9.126;2023-02-13T06:02:02;1.00;99.90
666;DHT22;315;48.738;9.126;2023-02-13T06:04:28;1.00;99.90
666;DHT22;315;48.738;9.126;2023-02-13T06:06:53;1.10;99.90
666;DHT22;315;48.738;9.126;2023-02-13T06:09:19;1.10;99.90
666;DHT22;315;48.738;9.126;2023-02-13T06:11:45;1.20;99.90
666;DHT22;315;48.738;9.126;2023-02-13T06:14:10;1.10;99.90
666;DHT22;315;48.738;9.126;2023-02-13T06:16:36;1.20;99.90
666;DHT22;315;48.738;9.126;2023-02-13T06:19:02;1.10;99.90
666;DHT22;315;48.738;9.126;2023-02-13T06:21:27;1.10;99.90
666;DHT22;315;48.738;9.126;2023-02-13T06:23:53;1.20;99.90
666;DHT22;315;48.738;9.126;2023-02-13T06:26:18;1.20;99.90
666;DHT22;315;48.738;9.126;2023-02-13T06:28:44;1.20;99.90
666;DHT22;315;48.738;9.126;2023-02-13T06:31:09;1.20;99.90
666;DHT22;315;48.738;9.126;2023-02-13T06:33:35;1.20;99.90
666;DHT22;315;48.738;9.126;2023-02-13T06:36:00;1.20;99.90
666;DHT22;315;48.738;9.126;2023-02-13T06:38:26;1.30;99.90
666;DHT22;315;48.738;9.126;2023-02-13T06:40:51;1.30;99.90
666;DHT22;315;48.738;9.126;2023-02-13T06:43:17;1.30;99.90
666;DHT22;315;48.738;9.126;2023-02-13T06:45:43;1.40;99.90
666;DHT22;315;48.738;9.126;2023-02-13T06:48:09;1.30;99.90
666;DHT22;315;48.738;9.126;2023-02-13T06:50:34;1.30;99.90
666;DHT22;315;48.738;9.126;2023-02-13T06:53:00;1.30;99.90
666;DHT22;315;48.738;9.126;2023-02-13T06:55:26;1.40;99.90
666;DHT22;315;48.738;9.126;2023-02-13T06:57:51;1.40;99.90
666;DHT22;315;48.738;9.126;2023-02-13T07:00:17;1.40;99.90
666;DHT22;315;48.738;9.126;2023-02-13T07:02:44;1.50;99.90
666;DHT22;315;48.738;9.126;2023-02-13T07:05:10;1.60;99.90
666;DHT22;315;48.738;9.126;2023-02-13T07:07:37;1.60;99.90
666;DHT22;315;48.738;9.126;2023-02-13T07:10:04;1.60;99.90
666;DHT22;315;48.738;9.126;2023-02-13T07:12:32;1.80;99.90
666;DHT22;315;48.738;9.126;2023-02-13T07:14:58;1.80;99.90
666;DHT22;315;48.738;9.126;2023-02-13T07:17:23;1.90;99.90
666;DHT22;315;48.738;9.126;2023-02-13T07:19:49;2.00;99.90
666;DHT22;315;48.738;9.126;2023-02-13T07:22:14;2.10;99.90
666;DHT22;315;48.738;9.126;2023-02-13T07:24:40;2.30;99.90
666;DHT22;315;48.738;9.126;2023-02-13T07:27:05;2.60;99.90
666;DHT22;315;48.738;9.126;2023-02-13T07:29:31;2.90;99.90
666;DHT22;315;48.738;9.126;2023-02-13T07:31:56;3.10;99.90
666;DHT22;315;48.738;9.126;2023-02-13T07:34:22;3.20;99.90
666;DHT22;315;48.738;9.126;2023-02-13T07:36:47;3.40;99.90
666;DHT22;315;48.738;9.126;2023-02-13T07:39:13;3.60;99.90
666;DHT22;315;48.738;9.126;2023-02-13T07:41:39;3.80;99.90
666;DHT22;315;48.738;9.126;2023-02-13T07:44:04;4.20;99.90
666;DHT22;315;48.738;9.126;2023-02-13T07:46:30;4.50;99.90
666;DHT22;315;48.738;9.126;2023-02-13T07:48:55;4.70;99.90
666;DHT22;315;48.738;9.126;2023-02-13T07:51:21;4.90;99.90
666;DHT22;315;48.738;9.126;2023-02-13T07:53:50;5.20;99.90
666;DHT22;315;48.738;9.126;2023-02-13T07:56:16;5.40;99.90
666;DHT22;315;48.738;9.126;2023-02-13T07:58:42;5.70;99.90
666;DHT22;315;48.738;9.126;2023-02-13T08:01:10;5.90;99.90
666;DHT22;315;48.738;9.126;2023-02-13T08:03:36;6.10;99.90
666;DHT22;315;48.738;9.126;2023-02-13T08:06:03;6.40;99.90
666;DHT22;315;48.738;9.126;2023-02-13T08:08:29;6.80;99.90
666;DHT22;315;48.738;9.126;2023-02-13T08:10:56;7.00;99.90
666;DHT22;315;48.738;9.126;2023-02-13T08:13:40;6.70;99.90
666;DHT22;315;48.738;9.126;2023-02-13T08:16:07;6.50;99.90
666;DHT22;315;48.738;9.126;2023-02-13T08:18:32;6.40;99.90
666;DHT22;315;48.738;9.126;2023-02-13T08:20:58;6.50;99.90
666;DHT22;315;48.738;9.126;2023-02-13T08:23:25;6.90;99.90
666;DHT22;315;48.738;9.126;2023-02-13T08:25:51;7.50;99.90
666;DHT22;315;48.738;9.126;2023-02-13T08:28:16;7.90;99.90
666;DHT22;315;48.738;9.126;2023-02-13T08:30:42;8.80;99.90
666;DHT22;315;48.738;9.126;2023-02-13T08:33:07;8.80;99.90
666;DHT22;315;48.738;9.126;2023-02-13T08:35:33;8.60;99.90
666;DHT22;315;48.738;9.126;2023-02-13T08:38:03;8.60;99.90
666;DHT22;315;48.738;9.126;2023-02-13T08:40:29;8.30;99.90
666;DHT22;315;48.738;9.126;2023-02-13T08:43:01;8.00;99.90
666;DHT22;315;48.738;9.126;2023-02-13T08:45:28;8.30;99.90
666;DHT22;315;48.738;9.126;2023-02-13T08:47:57;8.30;99.90
666;DHT22;315;48.738;9.126;2023-02-13T08:50:24;8.20;99.90
666;DHT22;315;48.738;9.126;2023-02-13T08:52:50;8.20;99.90
666;DHT22;315;48.738;9.126;2023-02-13T08:55:16;8.10;99.90
666;DHT22;315;48.738;9.126;2023-02-13T08:57:41;9.20;99.90
666;DHT22;315;48.738;9.126;2023-02-13T09:00:07;9.20;99.90
666;DHT22;315;48.738;9.126;2023-02-13T09:02:33;9.50;99.90
666;DHT22;315;48.738;9.126;2023-02-13T09:04:58;10.80;99.90
666;DHT22;315;48.738;9.126;2023-02-13T09:07:24;11.60;99.90
666;DHT22;315;48.738;9.126;2023-02-13T09:09:49;12.60;99.90
666;DHT22;315;48.738;9.126;2023-02-13T09:12:15;11.40;99.90
666;DHT22;315;48.738;9.126;2023-02-13T09:14:40;12.20;99.90
666;DHT22;315;48.738;9.126;2023-02-13T09:17:06;13.10;99.90
666;DHT22;315;48.738;9.126;2023-02-13T09:19:32;14.30;99.90
666;DHT22;315;48.738;9.126;2023-02-13T09:21:57;14.90;99.90
666;DHT22;315;48.738;9.126;2023-02-13T09:24:23;14.60;99.90
666;DHT22;315;48.738;9.126;2023-02-13T09:26:48;14.20;99.90
666;DHT22;315;48.738;9.126;2023-02-13T09:29:14;14.50;99.90
666;DHT22;315;48.738;9.126;2023-02-13T09:31:39;14.30;99.90
666;DHT22;315;48.738;9.126;2023-02-13T09:34:05;15.20;98.40
666;DHT22;315;48.738;9.126;2023-02-13T09:36:30;15.00;96.60
666;DHT22;315;48.738;9.126;2023-02-13T09:38:57;14.10;98.70
666;DHT22;315;48.738;9.126;2023-02-13T09:41:27;14.50;99.20
666;DHT22;315;48.738;9.126;2023-02-13T09:46:28;14.40;98.70
666;DHT22;315;48.738;9.126;2023-02-13T09:48:56;15.40;96.00
666;DHT22;315;48.738;9.126;2023-02-13T09:51:24;15.30;96.10
666;DHT22;315;48.738;9.126;2023-02-13T09:53:56;15.10;96.70
666;DHT22;315;48.738;9.126;2023-02-13T09:56:47;15.80;94.40
666;DHT22;315;48.738;9.126;2023-02-13T10:02:01;17.50;90.30
666;DHT22;315;48.738;9.126;2023-02-13T10:07:48;18.00;85.00
666;DHT22;315;48.738;9.126;2023-02-13T10:10:29;18.10;81.70
666;DHT22;315;48.738;9.126;2023-02-13T10:13:12;17.80;81.70
666;DHT22;315;48.738;9.126;2023-02-13T10:15:47;18.20;80.80
666;DHT22;315;48.738;9.126;2023-02-13T10:18:21;17.40;81.20
666;DHT22;315;48.738;9.126;2023-02-13T10:20:51;17.90;79.40
666;DHT22;315;48.738;9.126;2023-02-13T10:25:59;16.50;82.50
666;DHT22;315;48.738;9.126;2023-02-13T10:28:38;17.10;83.30
666;DHT22;315;48.738;9.126;2023-02-13T10:31:14;18.40;78.00
666;DHT22;315;48.738;9.126;2023-02-13T10:36:18;18.50;75.50
666;DHT22;315;48.738;9.126;2023-02-13T10:38:55;19.20;72.60
666;DHT22;315;48.738;9.126;2023-02-13T10:41:34;19.40;71.60
666;DHT22;315;48.738;9.126;2023-02-13T10:49:28;18.60;69.80
666;DHT22;315;48.738;9.126;2023-02-13T10:52:47;18.70;70.70
666;DHT22;315;48.738;9.126;2023-02-13T10:55:01;17.50;73.00
666;DHT22;315;48.738;9.126;2023-02-13T10:58:05;19.20;71.40
666;DHT22;315;48.738;9.126;2023-02-13T11:03:00;20.80;68.10
666;DHT22;315;48.738;9.126;2023-02-13T11:05:39;21.40;67.40
666;DHT22;315;48.738;9.126;2023-02-13T11:08:20;21.90;64.20
666;DHT22;315;48.738;9.126;2023-02-13T11:10:46;23.10;58.40
666;DHT22;315;48.738;9.126;2023-02-13T11:13:23;23.60;54.90
666;DHT22;315;48.738;9.126;2023-02-13T11:16:08;24.00;53.30
666;DHT22;315;48.738;9.126;2023-02-13T11:18:40;23.20;52.80
666;DHT22;315;48.738;9.126;2023-02-13T11:21:22;23.20;52.80
666;DHT22;315;48.738;9.126;2023-02-13T11:23:56;23.20;52.20
666;DHT22;315;48.738;9.126;2023-02-13T11:26:30;23.90;51.40
666;DHT22;315;48.738;9.126;2023-02-13T11:28:59;24.10;50.40
666;DHT22;315;48.738;9.126;2023-02-13T11:31:31;21.90;52.00
666;DHT22;315;48.738;9.126;2023-02-13T11:33:58;22.30;51.90
666;DHT22;315;48.738;9.126;2023-02-13T11:36:33;21.70;51.80
666;DHT22;315;48.738;9.126;2023-02-13T11:39:24;22.20;53.10
666;DHT22;315;48.738;9.126;2023-02-13T11:41:48;23.80;48.70
666;DHT22;315;48.738;9.126;2023-02-13T11:46:50;25.30;48.50
666;DHT22;315;48.738;9.126;2023-02-13T11:51:46;25.10;47.20
666;DHT22;315;48.738;9.126;2023-02-13T11:56:52;24.70;48.50
666;DHT22;315;48.738;9.126;2023-02-13T11:59:21;25.60;47.70
666;DHT22;315;48.738;9.126;2023-02-13T12:02:22;26.80;43.60
666;DHT22;315;48.738;9.126;2023-02-13T12:04:51;27.00;40.70
666;DHT22;315;48.738;9.126;2023-02-13T12:07:28;27.20;43.60
666;DHT22;315;48.738;9.126;2023-02-13T12:10:07;27.10;47.00
666;DHT22;315;48.738;9.126;2023-02-13T12:12:57;26.20;46.50
666;DHT22;315;48.738;9.126;2023-02-13T12:15:25;25.70;46.60
666;DHT22;315;48.738;9.126;2023-02-13T12:18:09;25.90;46.50
666;DHT22;315;48.738;9.126;2023-02-13T12:23:48;25.40;45.90
666;DHT22;315;48.738;9.126;2023-02-13T12:26:33;25.10;45.70
666;DHT22;315;48.738;9.126;2023-02-13T12:32:18;24.50;45.60
666;DHT22;315;48.738;9.126;2023-02-13T12:34:57;25.10;46.00
666;DHT22;315;48.738;9.126;2023-02-13T12:46:28;25.70;45.60
666;DHT22;315;48.738;9.126;2023-02-13T13:03:36;25.10;45.40
666;DHT22;315;48.738;9.126;2023-02-13T13:06:16;25.50;44.60
666;DHT22;315;48.738;9.126;2023-02-13T13:16:47;25.90;44.30
666;DHT22;315;48.738;9.126;2023-02-13T13:22:03;24.00;45.20
666;DHT22;315;48.738;9.126;2023-02-13T13:25:03;22.30;46.90
666;DHT22;315;48.738;9.126;2023-02-13T13:27:45;23.90;45.90
666;DHT22;315;48.738;9.126;2023-02-13T13:30:28;23.50;46.70
666;DHT22;315;48.738;9.126;2023-02-13T13:38:55;25.90;44.50
666;DHT22;315;48.738;9.126;2023-02-13T13:41:34;26.50;44.70
666;DHT22;315;48.738;9.126;2023-02-13T13:44:14;26.10;43.60
666;DHT22;315;48.738;9.126;2023-02-13T13:46:55;27.10;46.00
666;DHT22;315;48.738;9.126;2023-02-13T13:52:27;24.50;44.40
666;DHT22;315;48.738;9.126;2023-02-13T13:54:53;23.50;46.30
666;DHT22;315;48.738;9.126;2023-02-13T13:57:23;24.90;45.90
666;DHT22;315;48.738;9.126;2023-02-13T13:59:58;26.10;44.90
666;DHT22;315;48.738;9.126;2023-02-13T14:05:19;27.60;43.70
666;DHT22;315;48.738;9.126;2023-02-13T14:07:48;28.10;42.80
666;DHT22;315;48.738;9.126;2023-02-13T14:12:48;24.80;44.20
666;DHT22;315;48.738;9.126;2023-02-13T14:17:58;20.90;49.50
666;DHT22;315;48.738;9.126;2023-02-13T14:20:34;19.40;52.90
666;DHT22;315;48.738;9.126;2023-02-13T14:23:13;18.40;55.50
666;DHT22;315;48.738;9.126;2023-02-13T14:25:39;16.70;54.10
666;DHT22;315;48.738;9.126;2023-02-13T14:28:05;15.90;56.10
666;DHT22;315;48.738;9.126;2023-02-13T14:30:35;15.10;56.80
666;DHT22;315;48.738;9.126;2023-02-13T14:33:05;14.20;62.70
666;DHT22;315;48.738;9.126;2023-02-13T14:35:34;13.20;72.50
666;DHT22;315;48.738;9.126;2023-02-13T14:38:04;13.00;77.80
666;DHT22;315;48.738;9.126;2023-02-13T14:40:45;12.80;81.10
666;DHT22;315;48.738;9.126;2023-02-13T14:46:48;12.30;91.40
666;DHT22;315;48.738;9.126;2023-02-13T14:49:01;12.00;93.70
666;DHT22;315;48.738;9.126;2023-02-13T14:51:35;11.60;96.20
666;DHT22;315;48.738;9.126;2023-02-13T14:54:06;11.50;97.80
666;DHT22;315;48.738;9.126;2023-02-13T14:56:36;11.40;99.30
666;DHT22;315;48.738;9.126;2023-02-13T15:01:59;11.00;99.90
666;DHT22;315;48.738;9.126;2023-02-13T15:07:01;11.00;99.90
666;DHT22;315;48.738;9.126;2023-02-13T15:09:33;10.80;99.90
666;DHT22;315;48.738;9.126;2023-02-13T15:12:00;10.80;99.90
666;DHT22;315;48.738;9.126;2023-02-13T15:14:35;10.60;99.90
666;DHT22;315;48.738;9.126;2023-02-13T15:17:26;10.40;99.90
666;DHT22;315;48.738;9.126;2023-02-13T15:19:58;10.40;99.90
666;DHT22;315;48.738;9.126;2023-02-13T15:22:32;10.50;99.90
666;DHT22;315;48.738;9.126;2023-02-13T15:25:00;10.40;99.90
666;DHT22;315;48.738;9.126;2023-02-13T15:27:31;10.20;99.90
666;DHT22;315;48.738;9.126;2023-02-13T15:32:34;9.90;99.90
666;DHT22;315;48.738;9.126;2023-02-13T15:35:08;9.90;99.90
666;DHT22;315;48.738;9.126;2023-02-13T15:37:34;9.90;99.90
666;DHT22;315;48.738;9.126;2023-02-13T15:42:54;9.70;99.90
666;DHT22;315;48.738;9.126;2023-02-13T15:45:21;9.60;99.90
666;DHT22;315;48.738;9.126;2023-02-13T15:47:48;9.50;99.90
666;DHT22;315;48.738;9.126;2023-02-13T15:50:28;9.40;99.90
666;DHT22;315;48.738;9.126;2023-02-13T15:52:55;9.30;99.90
666;DHT22;315;48.738;9.126;2023-02-13T15:55:25;9.30;99.90
666;DHT22;315;48.738;9.126;2023-02-13T15:57:53;9.00;99.90
666;DHT22;315;48.738;9.126;2023-02-13T16:00:27;9.00;99.90
666;DHT22;315;48.738;9.126;2023-02-13T16:02:54;8.90;99.90
666;DHT22;315;48.738;9.126;2023-02-13T16:05:21;8.90;99.90
666;DHT22;315;48.738;9.126;2023-02-13T16:07:52;8.70;99.90
666;DHT22;315;48.738;9.126;2023-02-13T16:10:31;8.60;99.90
666;DHT22;315;48.738;9.126;2023-02-13T16:12:58;8.60;99.90
666;DHT22;315;48.738;9.126;2023-02-13T16:15:27;8.60;99.90
666;DHT22;315;48.738;9.126;2023-02-13T16:17:54;8.40;99.90
666;DHT22;315;48.738;9.126;2023-02-13T16:20:22;8.40;99.90
666;DHT22;315;48.738;9.126;2023-02-13T16:23:02;8.40;99.90
666;DHT22;315;48.738;9.126;2023-02-13T16:25:34;8.30;99.90
666;DHT22;315;48.738;9.126;2023-02-13T16:28:13;8.20;99.90
666;DHT22;315;48.738;9.126;2023-02-13T16:30:44;8.10;99.90
666;DHT22;315;48.738;9.126;2023-02-13T16:38:43;7.80;99.90
666;DHT22;315;48.738;9.126;2023-02-13T16:43:44;7.60;99.90
666;DHT22;315;48.738;9.126;2023-02-13T16:46:15;7.50;99.90
666;DHT22;315;48.738;9.126;2023-02-13T16:48:56;7.40;99.90
666;DHT22;315;48.738;9.126;2023-02-13T16:57:19;7.00;99.90
666;DHT22;315;48.738;9.126;2023-02-13T17:02:28;6.80;99.90
666;DHT22;315;48.738;9.126;2023-02-13T17:10:05;6.40;99.90
666;DHT22;315;48.738;9.126;2023-02-13T17:12:34;6.30;99.90
666;DHT22;315;48.738;9.126;2023-02-13T17:15:00;6.20;99.90
666;DHT22;315;48.738;9.126;2023-02-13T17:17:29;6.10;99.90
666;DHT22;315;48.738;9.126;2023-02-13T17:19:55;6.10;99.90
666;DHT22;315;48.738;9.126;2023-02-13T17:22:34;6.00;99.90
666;DHT22;315;48.738;9.126;2023-02-13T17:25:03;6.00;99.90
666;DHT22;315;48.738;9.126;2023-02-13T17:27:29;5.90;99.90
666;DHT22;315;48.738;9.126;2023-02-13T17:29:54;6.00;99.90
666;DHT22;315;48.738;9.126;2023-02-13T17:32:23;5.90;99.90
666;DHT22;315;48.738;9.126;2023-02-13T17:34:49;5.80;99.90
666;DHT22;315;48.738;9.126;2023-02-13T17:37:17;5.70;99.90
666;DHT22;315;48.738;9.126;2023-02-13T17:39:44;5.50;99.90
666;DHT22;315;48.738;9.126;2023-02-13T17:42:18;5.50;99.90
666;DHT22;315;48.738;9.126;2023-02-13T17:44:44;5.40;99.90
666;DHT22;315;48.738;9.126;2023-02-13T17:47:10;5.30;99.90
666;DHT22;315;48.738;9.126;2023-02-13T17:49:36;5.20;99.90
666;DHT22;315;48.738;9.126;2023-02-13T17:52:01;5.10;99.90
666;DHT22;315;48.738;9.126;2023-02-13T17:54:27;5.10;99.90
666;DHT22;315;48.738;9.126;2023-02-13T17:56:53;5.00;99.90
666;DHT22;315;48.738;9.126;2023-02-13T17:59:19;4.90;99.90
666;DHT22;315;48.738;9.126;2023-02-13T18:01:44;4.80;99.90
666;DHT22;315;48.738;9.126;2023-02-13T18:04:10;4.70;99.90
666;DHT22;315;48.738;9.126;2023-02-13T18:06:35;4.60;99.90
666;DHT22;315;48.738;9.126;2023-02-13T18:09:01;4.50;99.90
666;DHT22;315;48.738;9.126;2023-02-13T18:11:27;4.50;99.90
666;DHT22;315;48.738;9.126;2023-02-13T18:13:52;4.50;99.90
666;DHT22;315;48.738;9.126;2023-02-13T18:16:18;4.40;99.90
666;DHT22;315;48.738;9.126;2023-02-13T18:18:43;4.30;99.90
666;DHT22;315;48.738;9.126;2023-02-13T18:21:09;4.30;99.90
666;DHT22;315;48.738;9.126;2023-02-13T18:23:34;4.30;99.90
666;DHT22;315;48.738;9.126;2023-02-13T18:26:05;4.30;99.90
666;DHT22;315;48.738;9.126;2023-02-13T18:28:31;4.30;99.90
666;DHT22;315;48.738;9.126;2023-02-13T18:30:56;4.10;99.90
666;DHT22;315;48.738;9.126;2023-02-13T18:33:22;4.00;99.90
666;DHT22;315;48.738;9.126;2023-02-13T18:35:47;3.90;99.90
666;DHT22;315;48.738;9.126;2023-02-13T18:38:13;3.90;99.90
666;DHT22;315;48.738;9.126;2023-02-13T18:40:39;3.90;99.90
666;DHT22;315;48.738;9.126;2023-02-13T18:43:05;3.90;99.90
666;DHT22;315;48.738;9.126;2023-02-13T18:45:31;3.80;99.90
666;DHT22;315;48.738;9.126;2023-02-13T18:47:56;3.70;99.90
666;DHT22;315;48.738;9.126;2023-02-13T18:50:22;3.70;99.90
666;DHT22;315;48.738;9.126;2023-02-13T18:52:48;3.70;99.90
666;DHT22;315;48.738;9.126;2023-02-13T18:55:13;3.70;99.90
666;DHT22;315;48.738;9.126;2023-02-13T18:57:39;3.60;99.90
666;DHT22;315;48.738;9.126;2023-02-13T19:00:08;3.60;99.90
666;DHT22;315;48.738;9.126;2023-02-13T19:02:34;3.60;99.90
666;DHT22;315;48.738;9.126;2023-02-13T19:05:00;3.60;99.90
666;DHT22;315;48.738;9.126;2023-02-13T19:07:26;3.50;99.90
666;DHT22;315;48.738;9.126;2023-02-13T19:09:51;3.40;99.90
666;DHT22;315;48.738;9.126;2023-02-13T19:12:17;3.20;99.90
666;DHT22;315;48.738;9.126;2023-02-13T19:14:42;3.00;99.90
666;DHT22;315;48.738;9.126;2023-02-13T19:17:08;3.00;99.90
666;DHT22;315;48.738;9.126;2023-02-13T19:19:35;3.00;99.90
666;DHT22;315;48.738;9.126;2023-02-13T19:22:00;3.00;99.90
666;DHT22;315;48.738;9.126;2023-02-13T19:24:26;3.00;99.90
666;DHT22;315;48.738;9.126;2023-02-13T19:26:52;3.00;99.90
666;DHT22;315;48.738;9.126;2023-02-13T19:29:17;3.00;99.90
666;DHT22;315;48.738;9.126;2023-02-13T19:31:43;3.00;99.90
666;DHT22;315;48.738;9.126;2023-02-13T19:34:08;3.00;99.90